X  Chiuso Dati meteorologici dell'aviazione (METAR)     LIML Linate
Temperatura
7°C Temperatura
5°C Punto di rugiada
87% Umidità



Vento
5 KM/H
3 MPH
1 M/S
3 KTS



200°
SSW
Condizioni attuali

Chiaro Chiaro
Pressione 1022.92 (hPa) - 30.21 (inHg)
Visibilità 5 (miglio) - 8 (km)
Aeroporto
Aeroporto-code LIML

Posizione: Linate
Distanza: 100 (km)

Metar:
LIML 181620Z 20003KT 8000 NSC 07/05 Q1023 NOSIG

Ore: 01-18-2020 17:20 CET